Alle Lego sets met een set nummer van 41000 tot 42000

Sorteer op
Titel van setPrijsVerschilToegevoegd
Plezier op het water (41000)€ 5,49- € 0,50 (8%)2012-12-17
Mia's Magic Tricks (41001)€ 9,50- € 0,49 (5%)2012-12-17
Emma's Karate Class (41002)€ 9,50- € 0,49 (5%)2012-12-17
Olivia's veulentje (41003)€ 9,95- € 0,04 (0%)2012-12-17
Oefenzaal (41004)€ 17,50- € 2,49 (12%)2012-12-17
Heartlake school (41005)€ 87,50+ € 29,95 (52%)2013-07-30
Bakkerij (41006)€ 32,50+ € 3,79 (13%)2013-07-30
Heartlake Dierensalon (41007)€ 32,50- € 0,49 (1%)2012-12-17
Heartlake zwembad (41008)€ 49,50+ € 9,51 (24%)2012-12-17
Andrea’s slaapkamer (41009)€ 11,00- € 0,47 (4%)2013-07-31
Olivia’s strandbuggy (41010)€ 9,50- € 1,97 (17%)2013-07-31
Stephanie's Soccer Practice (41011)€ 9,50- € 0,49 (5%)2012-12-17
Emma’s sportwagen (41013)€ 17,50+ € 2,51 (17%)2013-08-01
Dolfijn cruiser (41015)€ 84,50+ € 15,44 (22%)2013-07-30
LEGO® Friends Advent Calendar (41016)€ 19,98- € 3,01 (13%)2013-09-25
Squirrel's Tree House (41017)€ 4,95+ € 0,96 (24%)2012-12-17
Cat's Playground (41018)€ 4,95+ € 0,96 (24%)2012-12-17
Turtle's Little Oasis (41019)€ 4,95+ € 0,96 (24%)2012-12-17
Hedgehog's Hideaway (41020)€ 4,95+ € 0,96 (24%)2013-05-01
Poodle's Little Palace (41021)€ 4,95+ € 0,96 (24%)2013-05-01
Het hok van Konijn (41022)€ 4,95+ € 0,96 (24%)2013-05-01
Papegaaiennest (41024)€ 13,10+ € 9,11 (228%)2013-10-06
Puppy speelhuis (41025)€ 4,95+ € 0,96 (24%)2013-10-06
Sunshine Oogst (41026)€ 17,00- € 2,99 (15%)2013-12-27
Emma's reddingspost (41028)€ 11,50+ € 1,51 (15%)2013-12-27
Stephanie's lammetje (41029)€ 9,95- € 0,04 (0%)2013-12-27
Olivia's IJskraam (41030)€ 11,50+ € 1,51 (15%)2014-05-31
Eerste Hulp Junglebike (41032)€ 15,99+ € 1,00 (7%)2014-05-31
Junglewaterval reddingsactie (41033)€ 21,00+ € 1,01 (5%)2014-05-31
Junglebrug reddingsactie (41036)€ 29,50- € 3,49 (11%)2014-05-31
Stephanie's strandhuis (41037)€ 44,50- € 0,49 (1%)2013-12-27
LEGO® Friends Adventkalender (41040)€ 19,95- € 5,04 (20%)2014-09-02
Het paradijsje van Schildpad (41041)€ 3,25- € 1,24 (28%)2013-12-27
De tempel van Tijger (41042)€ 4,95+ € 0,46 (10%)2013-12-27
De fontein van Papegaai (41044)€ 4,95+ € 0,46 (10%)2014-05-14
De bananenboom van Orang-oetan (41045)€ 4,95+ € 0,46 (10%)2014-05-14
De rivier van Bruine Beer (41046)€ 4,95+ € 0,46 (10%)2014-05-14
Zeehondenrots (41047)€ 4,95+ € 0,46 (10%)2014-09-02
Leeuwenwelp savanne (41048)€ 4,95+ € 0,46 (10%)2014-09-02
Panda bamboebos (41049)€ 3,25- € 1,24 (28%)2014-09-02
Heartlake satellietwagen (41056)€ 29,50+ € 2,51 (9%)2013-12-27
Heartlake winkelcentrum (41058)€ 89,95- € 20,04 (18%)2014-05-31
Jasmines exotische paleis (41061)€ 26,99--2014-12-23
Elsa's fonkelende ijskasteel (41062)€ 34,00- € 10,99 (24%)2014-12-23
Rapunzels allermooiste dag (41065)€ 14,99- € 15,00 (50%)2016-05-26
Slee-avontuur met Anna & Kristoff (41066)€ 19,71- € 15,28 (44%)2015-12-04
Belle's betoverde kasteel (41067)€ 39,98- € 20,01 (33%)2016-05-26
Het kasteelfeest in Arendelle (41068)€ 41,27- € 28,72 (41%)2015-12-04
Een dag bij het zwembad met Treasure (41069)€ 5,98- € 4,01 (40%)2015-12-15
Aira's werkplaats (41071)€ 9,99--2015-03-01
Naida's avonturenschip (41073)€ 29,99- € 3,00 (9%)2015-03-01
De Treetop Hideaway van de Elfen (41075)€ 52,99- € 2,00 (4%)2015-03-01
Aira’s Pegasus slee (41077)€ 36,95- € 8,04 (18%)2015-06-01
Heartlake vuurtoren (41094)€ 33,74- € 11,25 (25%)2014-12-25
Emma's huis (41095)€ 54,99- € 20,00 (27%)2014-12-25
Heartlake luchtballon (41097)€ 22,95- € 10,04 (30%)2014-12-25
Andrea’s Toeristenkiosk (41098)€ 7,50- € 2,49 (25%)2015-06-01
Heartlake Skate Park (41099)€ 16,99- € 3,00 (15%)2015-06-01
Heartlake Privéjet (41100)€ 32,99+ € 6,00 (22%)2015-06-01
Heartlake Grand Hotel (41101)€ 97,99- € 42,00 (30%)2015-06-01
LEGO® Friends Adventkalender (41102)€ 19,95- € 5,04 (20%)2015-09-01
Popster Opnamestudio (41103)€ 11,95- € 3,04 (20%)2015-06-01
Popster Podium (41105)€ 37,49- € 11,36 (23%)2015-06-01
Popster Toerbus (41106)€ 39,00- € 25,99 (40%)2015-06-01
Heartlake Supermarkt (41108)€ 44,95- € 0,04 (0%)2015-06-01
Heartlake Vliegveld (41109)€ 84,95- € 15,04 (15%)2015-06-01
Verjaardagsfeest (41110)€ 15,95- € 4,04 (20%)2015-12-15
Feesttrein (41111)€ 7,95- € 2,04 (20%)2015-12-15
Feesttaartjes (41112)€ 3,95- € 2,04 (34%)2015-12-15
Cadeauwinkel (41113)€ 3,95- € 2,04 (34%)2015-12-15
Schoonheidssalon (41114)€ 3,95- € 2,04 (34%)2015-12-15
Emma's atelier (41115)€ 7,95- € 2,04 (20%)2015-12-19
Olivia's onderzoeksvoertuig (41116)€ 14,95- € 3,04 (17%)2015-12-19
Popster tv-studio (41117)€ 12,00- € 7,99 (40%)2015-12-19
Heartlake supermarkt (41118)€ 26,49- € 8,50 (24%)2015-12-19
Heartlake cupcake café (41119)€ 30,00- € 14,99 (33%)2015-12-19
Avonturenkamp boogschieten (41120)€ 7,50- € 2,49 (25%)2015-12-15
Avonturenkamp wildwatervaren (41121)€ 25,95- € 9,04 (26%)2015-12-15
Avonturenkamp boomhuis (41122)€ 39,98- € 40,01 (50%)2015-12-15
Veulen wasplaats (41123)€ 6,99- € 3,00 (30%)2016-05-29
Heartlake puppy dagverblijf (41124)€ 19,00- € 15,99 (46%)2016-05-27
Paardendokter trailer (41125)€ 29,86- € 10,13 (25%)2016-05-27
Heartlake paardrijclub (41126)€ 39,99- € 30,00 (43%)2016-05-27
Pretpark spelletjeshal (41127)€ 10,98- € 7,01 (39%)2016-05-27
Pretpark ruimtevlucht (41128)€ 15,49- € 4,50 (23%)2016-05-27
Pretpark hotdog-wagen (41129)€ 18,99- € 11,00 (37%)2016-05-27
Pretpark achtbaan (41130)€ 77,50- € 22,49 (22%)2016-05-27
LEGO® Friends adventkalender (41131)€ 14,99- € 10,00 (40%)2016-08-31
Heartlake feestwinkel (41132)€ 29,00- € 5,99 (17%)2016-05-29
Pretpark botsauto's (41133)€ 29,86- € 15,13 (34%)2016-05-29
Heartlake Theaterschool (41134)€ 89,99--2016-05-29
Livi's popsterrenhuis (41135)€ 54,99- € 5,00 (8%)2015-12-15
Daisy's schoonheidssalon (41140)€ 7,16- € 4,83 (40%)2015-12-15
Pumpkins koninklijke koets (41141)€ 9,00- € 2,99 (25%)2015-12-15
Palace Pets koninklijk kasteel (41142)€ 15,95- € 4,04 (20%)2015-12-19
Berry's keuken (41143)€ 4,71- € 3,28 (41%)2016-12-01
Petite's koninklijke stal (41144)€ 8,46- € 3,53 (29%)2016-12-01
Anna's sneeuwavontuur (41147)€ 15,17- € 4,82 (24%)2016-12-01
Elsa's magische ijspaleis (41148)€ 49,88- € 25,11 (33%)2016-12-01
Vaiana's eilandavontuur (41149)€ 22,99- € 7,00 (23%)2016-12-01
Laagste ooitVaiana's oceaanreis (41150)€ 27,70- € 17,29 (38%)2016-12-01
Emily Jones & de baby winddraak (41171)€ 13,95+ € 3,96 (40%)2016-03-01
Het waterdraak avontuur (41172)€ 15,95- € 4,04 (20%)2016-03-01
De lavagrot van de vuurdraak (41175)€ 31,48- € 13,51 (30%)2016-03-01
De geheime markt (41176)€ 42,98- € 27,01 (39%)2016-03-01
De kostbare kristalmijn (41177)€ 19,95- € 10,04 (33%)2016-05-26
Koninginnendraak redding (41179)€ 50,34- € 29,65 (37%)2016-05-26
Ragana's magische schaduwkasteel (41180)€ 64,99- € 35,00 (35%)2016-05-26
Naida's gondel & de Goblin-dief (41181)€ 7,95- € 2,04 (20%)2017-03-01
Sophie Jones gevangen genomen (41182)€ 15,95- € 4,04 (20%)2017-03-01
De wrede draak van de Goblin-koning (41183)€ 22,99- € 12,00 (34%)2017-03-01
Aira's luchtschip & de jacht op het amulet (41184)€ 31,99- € 13,00 (29%)2017-03-01
Magische redding uit het Goblin-dorp (41185)€ 47,68- € 17,31 (27%)2017-03-01
Batgirl™ Batjet-achtervolging (41230)€ 19,50- € 5,49 (22%)2016-12-01
Harley Quinn™ schiet te hulp (41231)€ 22,98- € 12,01 (34%)2016-12-01
Superheldenschool (41232)€ 59,00- € 30,99 (34%)2016-12-01
Lashina™ tank (41233)€ 10,74- € 7,25 (40%)2016-12-01
Bumblebee™ helikopter (41234)€ 12,98- € 5,01 (28%)2016-12-01
Laagste ooitWonder Woman™ nachtverblijf (41235)€ 15,25- € 4,74 (24%)2016-12-01
Puppy kampioenschap (41300)€ 15,25- € 4,74 (24%)2016-12-01
Puppy optocht (41301)€ 11,99- € 6,00 (33%)2016-12-01
Puppy verzorgplek (41302)€ 3,75- € 1,24 (25%)2016-12-01
Puppy speeltuin (41303)€ 3,75- € 1,24 (25%)2016-12-01
Puppy verrassingen (41304)€ 3,75- € 1,24 (25%)2016-12-01
Emma's fotostudio (41305)€ 7,50- € 2,49 (25%)2016-12-01
Mia's strandscooter (41306)€ 7,50- € 2,49 (25%)2016-12-01
Olivia's laboratorium (41307)€ 7,95- € 2,04 (20%)2016-12-01
Stephanies vriendschap-taartjes (41308)€ 7,50- € 2,49 (25%)2016-12-01
Andrea's muzikale duet (41309)€ 7,50- € 2,49 (25%)2016-12-01
Heartlake pakjesdienst (41310)€ 13,99- € 6,00 (30%)2016-12-01
Heartlake pizzeria (41311)€ 22,88- € 7,11 (24%)2016-12-01
Heartlake sporthal (41312)€ 28,48- € 16,51 (37%)2016-12-01
Heartlake zwembad (41313)€ 37,00- € 12,99 (26%)2016-12-01
Stephanies huis (41314)€ 50,98- € 24,01 (32%)2016-12-01
Nurp-Naut (41529)€ 5,50+ € 0,51 (10%)2015-02-01
Gox (41536)€ 4,49- € 0,50 (10%)2015-06-01
Jinky (41537)€ 6,95+ € 2,78 (67%)2015-06-01
Kamzo (41538)€ 6,95+ € 2,78 (67%)2015-06-01
Spugg (41542)€ 5,50+ € 1,33 (32%)2015-06-01
Turg (41543)€ 5,50+ € 0,51 (10%)2015-06-01
Tungster (41544)€ 6,95+ € 2,78 (67%)2015-06-01
Kramm (41545)€ 5,50+ € 0,51 (10%)2015-10-01
Forx (41546)€ 5,50+ € 0,51 (10%)2015-10-01
Wuzzo (41547)€ 5,50+ € 0,51 (10%)2015-10-01
Snax (41551)€ 5,50+ € 0,51 (10%)2015-10-01
Berp (41552)€ 5,50+ € 0,51 (10%)2015-10-01
Kuffs (41554)€ 3,95- € 0,04 (1%)2016-01-31
Busto (41555)€ 3,95- € 0,04 (1%)2016-01-31
Mixadel (41558)€ 5,50+ € 1,51 (38%)2016-01-31
Jamzy (41560)€ 5,50+ € 1,51 (38%)2016-01-31
Tapsy (41561)€ 5,50+ € 1,51 (38%)2016-01-31
Trumpsy (41562)€ 5,50+ € 1,51 (38%)2016-01-31
Aquad (41564)€ 5,50+ € 1,51 (38%)2016-06-01
Laagste ooitGobbol (41572)€ 3,95- € 0,04 (1%)2016-10-01
Laagste ooitSweepz (41573)€ 3,95- € 0,04 (1%)2016-10-01
Laagste ooitCompax (41574)€ 3,95- € 0,04 (1%)2016-10-01
Laagste ooitCobrax (41575)€ 3,95- € 0,04 (1%)2016-10-01
Laagste ooitSpinza (41576)€ 3,95- € 0,04 (1%)2016-10-01
Laagste ooitMysto (41577)€ 3,95- € 0,04 (1%)2016-10-01
Screeno (41578)€ 4,95+ € 0,96 (24%)2016-10-01
Laagste ooitCamsta (41579)€ 3,95- € 0,04 (1%)2016-10-01
Laagste ooitMyke (41580)€ 3,95- € 0,04 (1%)2016-10-01
Laagste ooitBatman™ (41585)€ 9,99--2017-02-01
Laagste ooitBatgirl™ (41586)€ 9,99--2017-02-01
Laagste ooitRobin™ (41587)€ 9,99--2017-02-01
Laagste ooitThe Joker™ (41588)€ 9,99--2017-02-01
Laagste ooitCaptain America (41589)€ 9,99--2017-02-01
Laagste ooitIron Man (41590)€ 9,99--2017-02-01
Laagste ooitBlack Widow (41591)€ 9,99--2017-02-01
Laagste ooitThe Hulk (41592)€ 9,99--2017-02-01
Laagste ooitCaptain Jack Sparrow (41593)€ 9,99--2017-02-24
Laagste ooitCaptain Armando Salazar (41594)€ 9,99--2017-02-24
Laagste ooitBelle (41595)€ 9,99--2017-02-03
Laagste ooitBeast (41596)€ 9,99--2017-02-03

Ook niet meer leverbare sets laten zien